createdAt,value
2022-10-05T00:03:59.477Z,44
2022-10-05T00:35:01.417Z,44
2022-10-05T01:07:03.391Z,45.1
2022-10-05T01:40:05.651Z,42.9
2022-10-05T02:10:07.469Z,43.5
2022-10-05T02:40:09.234Z,43.5
2022-10-05T03:14:11.380Z,42.4
2022-10-05T03:45:13.235Z,43.5
2022-10-05T04:16:15.195Z,42.9
2022-10-05T04:47:17.290Z,42.4
2022-10-05T05:17:19.423Z,41.9
2022-10-05T05:50:21.321Z,41.3
2022-10-05T06:24:23.389Z,42.4
2022-10-05T06:54:25.211Z,43.5
2022-10-05T07:24:27.037Z,45.1
2022-10-05T07:54:28.983Z,46.7
2022-10-05T08:24:30.735Z,46.2
2022-10-05T08:55:32.713Z,48.3
2022-10-05T09:25:34.536Z,49.9
2022-10-05T09:55:36.549Z,54.8
2022-10-05T10:27:38.528Z,56.9
2022-10-05T10:58:40.396Z,56.4
2022-10-05T11:28:42.294Z,60.1
2022-10-05T12:01:44.731Z,61.8
2022-10-05T12:34:46.705Z,63.9
2022-10-05T13:08:48.831Z,66.1
2022-10-05T13:42:51.070Z,65
2022-10-05T14:14:53.114Z,63.9
2022-10-05T14:49:55.284Z,61.2
2022-10-05T15:19:57.219Z,60.7
2022-10-05T15:49:59.156Z,55.3
2022-10-05T16:22:01.095Z,50.5
2022-10-05T16:52:03.068Z,49.9
2022-10-05T17:22:04.956Z,49.4
2022-10-05T17:52:06.992Z,47.8
2022-10-05T18:23:08.818Z,47.2
2022-10-05T18:53:10.770Z,45.1
2022-10-05T19:23:12.562Z,45.1
2022-10-05T19:53:14.673Z,44.5
2022-10-05T20:26:16.821Z,45.1
2022-10-05T20:56:18.692Z,44
2022-10-05T21:26:20.608Z,44
2022-10-05T21:56:22.592Z,42.9
2022-10-05T22:29:24.858Z,43.5
2022-10-05T23:00:26.863Z,42.4
2022-10-05T23:30:28.734Z,42.4
